Time;durP1;ratioP1;P1;durP2;ratioP2;P2;SDS_P1;SDS_P2;PMS_P1;PMS_P2;Temp;Humidity;BMP_temperature;BMP_pressure;BME280_temperature;BME280_humidity;BME280_pressure;Samples;Min_cycle;Max_cycle;Signal;HPM_P1;HPM_P2
2022/04/19 00:05:35;;;;;;;;;;;;;;;;;;;;;
2022/04/19 00:12:25;;;;;;;;;;;;;;;9.10;51.06;99490.91;4274184;33;34190;-90
2022/04/19 00:19:00;;;;;;;;;;;;;;;8.87;51.97;99478.97;4281183;33;33535;-89
2022/04/19 00:33:18;;;;;;;;;;;;;;;9.12;51.19;99481.03;4265366;33;33010;-90
2022/04/19 00:43:38;;;;;;;;;;;;;;;9.11;51.37;99467.87;4258058;33;34157;-90
2022/04/19 00:47:01;;;;;;;;;;;;;;;;;;;;;
2022/04/19 00:55:01;;;;;;;;;;;;;;;9.05;51.15;99453.38;4301319;33;34260;-90
2022/04/19 01:02:40;;;;;;;;;;;;;;;8.92;51.20;99452.84;4275113;33;33912;-91
2022/04/19 01:23:22;;;;;;;;;;;;;;;;;;;;;
2022/04/19 01:26:37;;;;;;;;;;;;;;;;;;;;;
2022/04/19 01:30:11;;;;;;;;;;;;;;;;;;;;;
2022/04/19 01:37:31;;;;;;;;;;;;;;;;;;;;;
2022/04/19 01:44:52;;;;;;;;;;;;;;;;;;;;;
2022/04/19 01:48:23;;;;;;;;;;;;;;;8.78;53.26;99417.94;4354949;32;34458;-90
2022/04/19 01:59:09;;;;;;;;;;;;;;;;;;;;;
2022/04/19 02:13:33;;;;;;;;;;;;;;;8.88;52.56;99400.22;4281079;33;33095;-90
2022/04/19 02:17:00;;;;;;;;;;;;;;;8.82;52.94;99395.50;4253060;33;33211;-92
2022/04/19 02:20:31;;;;;;;;;;;;;;;8.90;53.09;99391.13;4191146;34;34132;-91
2022/04/19 02:34:22;;;;;;;;;;;;;;;8.76;52.35;99388.94;4222069;33;33963;-91
2022/04/19 02:37:56;;;;;;;;;;;;;;;8.65;52.33;99385.59;4217609;33;35834;-90
2022/04/19 02:48:29;;;;;;;;;;;;;;;;;;;;;
2022/04/19 02:51:22;;;;;;;;;;;;;;;;;;;;;
2022/04/19 02:58:40;;;;;;;;;;;;;;;;;;;;;
2022/04/19 03:38:17;;;;;;;;;;;;;;;7.81;52.84;99388.06;4273873;33;31974;-89
2022/04/19 03:40:54;;;;;;;;;;;;;;;7.85;53.09;99389.47;4251221;33;33750;-89
2022/04/19 03:44:34;;;;;;;;;;;;;;;7.85;53.60;99384.16;4501510;31;789049;-87
2022/04/19 03:51:39;;;;;;;;;;;;;;;;;;;;;
2022/04/19 04:08:25;;;;;;;;;;;;;;;7.45;53.41;99382.56;4372112;32;34998;-88
2022/04/19 04:30:12;;;;;;;;;;;;;;;;;;;;;
2022/04/19 04:51:13;;;;;;;;;;;;;;;7.16;54.14;99393.03;4425585;32;35027;-88
2022/04/19 04:57:49;;;;;;;;;;;;;;;7.24;53.71;99393.19;4420733;32;32039;-90
2022/04/19 05:00:57;;;;;;;;;;;;;;;;;;;;;
2022/04/19 05:04:13;;;;;;;;;;;;;;;;;;;;;
2022/04/19 05:24:16;;;;;;;;;;;;;;;7.57;53.96;99397.34;4420300;32;32839;-85
2022/04/19 05:39:08;;;;;;;;;;;;;;;;;;;;;
2022/04/19 05:45:09;;;;;;;;;;;;;;;8.04;53.05;99401.91;4289009;33;35010;-88
2022/04/19 05:52:23;;;;;;;;;;;;;;;;;;;;;
2022/04/19 06:11:00;;;;;;;;;;;;;;;8.74;52.98;99392.72;4344459;32;35119;-87
2022/04/19 06:14:08;;;;;;;;;;;;;;;8.83;52.74;99392.69;4331655;33;33797;-85
2022/04/19 06:20:17;;;;;;;;;;;;;;;9.30;51.15;99397.03;4389378;32;34024;-85
2022/04/19 06:23:41;;;;;;;;;;;;;;;;;;;;;
2022/04/19 06:27:32;;;;;;;;;;;;;;;;;;;;;
2022/04/19 06:33:55;;;;;;;;;;;;;;;9.85;50.84;99379.25;4468774;32;33893;-84
2022/04/19 06:37:25;;;;;;;;;;;;;;;;;;;;;
2022/04/19 06:48:34;;;;;;;;;;;;;;;10.40;46.91;99372.84;4476089;31;32432;-88
2022/04/19 06:51:56;;;;;;;;;;;;;;;;;;;;;
2022/04/19 07:02:16;;;;;;;;;;;;;;;;;;;;;
2022/04/19 07:31:44;;;;;;;;;;;;;;;11.53;42.72;99366.25;4450484;26;34126;-78
2022/04/19 07:34:12;;;;;;;;;;;;;;;11.73;41.51;99361.53;4473677;31;35311;-79
2022/04/19 07:36:41;;;;;;;;;;;;;;;11.22;44.63;99366.13;4463541;31;33722;-79
2022/04/19 07:39:12;;;;;;;;;;;;;;;11.36;43.90;99366.34;4476662;31;32300;-80
2022/04/19 07:41:40;;;;;;;;;;;;;;;11.57;41.52;99364.12;4476672;31;33589;-80
2022/04/19 07:44:15;;;;;;;;;;;;;;;11.66;43.13;99369.34;4451492;31;33555;-80
2022/04/19 07:46:44;;;;;;;;;;;;;;;12.08;40.19;99361.25;4464100;31;34634;-79
2022/04/19 07:49:12;;;;;;;;;;;;;;;12.08;39.86;99358.59;4476185;31;33352;-80
2022/04/19 07:51:40;;;;;;;;;;;;;;;11.82;40.92;99368.56;4454630;31;33094;-80
2022/04/19 07:54:08;;;;;;;;;;;;;;;11.68;40.85;99361.16;4450060;31;35417;-79
2022/04/19 07:56:37;;;;;;;;;;;;;;;11.61;41.05;99358.31;4476831;31;34227;-78
2022/04/19 07:59:05;;;;;;;;;;;;;;;11.21;42.04;99362.59;4463238;31;34601;-80
2022/04/19 08:01:33;;;;;;;;;;;;;;;11.23;43.06;99365.94;4463502;31;33633;-80
2022/04/19 08:04:02;;;;;;;;;;;;;;;11.66;41.18;99368.50;4450056;31;34942;-79
2022/04/19 08:06:32;;;;;;;;;;;;;;;11.99;41.57;99359.59;4446478;31;33908;-79
2022/04/19 08:09:01;;;;;;;;;;;;;;;11.97;40.58;99367.75;4460033;31;31888;-79
2022/04/19 08:11:30;;;;;;;;;;;;;;;12.27;39.03;99366.31;4473532;31;33098;-79
2022/04/19 08:13:57;;;;;;;;;;;;;;;11.94;40.75;99368.09;4460688;31;35702;-79
2022/04/19 08:16:25;;;;;;;;;;;;;;;12.27;39.42;99366.31;4461977;31;34766;-80
2022/04/19 08:18:54;;;;;;;;;;;;;;;12.56;39.74;99359.47;4474066;31;32633;-80
2022/04/19 08:21:22;;;;;;;;;;;;;;;12.80;37.54;99351.47;4473468;31;33454;-79
2022/04/19 08:23:52;;;;;;;;;;;;;;;12.95;38.22;99356.97;4462298;31;34935;-78
2022/04/19 08:26:21;;;;;;;;;;;;;;;12.88;38.67;99355.94;4472528;31;34814;-79
2022/04/19 08:28:49;;;;;;;;;;;;;;;12.90;37.67;99364.62;4475355;31;32987;-79
2022/04/19 08:31:16;;;;;;;;;;;;;;;12.89;36.38;99349.59;4475216;31;34400;-80
2022/04/19 08:33:44;;;;;;;;;;;;;;;12.79;38.05;99360.47;4458202;31;34082;-80
2022/04/19 08:36:13;;;;;;;;;;;;;;;12.88;36.43;99356.78;4463737;31;34713;-82
2022/04/19 08:38:43;;;;;;;;;;;;;;;13.04;37.72;99353.28;4474394;31;32560;-80
2022/04/19 08:41:12;;;;;;;;;;;;;;;12.93;37.22;99349.09;4464170;31;33910;-81
2022/04/19 08:43:42;;;;;;;;;;;;;;;12.99;35.59;99345.78;4474827;31;35788;-80
2022/04/19 08:46:09;;;;;;;;;;;;;;;12.79;35.36;99351.63;4475878;31;32922;-80
2022/04/19 08:48:39;;;;;;;;;;;;;;;12.73;36.62;99352.28;4464449;31;32729;-80
2022/04/19 08:51:08;;;;;;;;;;;;;;;13.34;36.09;99347.19;4461108;31;32413;-79
2022/04/19 08:59:11;;;;;;;;;;;;;;;13.39;34.79;99340.31;4479205;31;32533;-80
2022/04/19 09:01:41;;;;;;;;;;;;;;;12.93;36.09;99337.59;4476169;31;34558;-80
2022/04/19 09:04:11;;;;;;;;;;;;;;;13.29;35.70;99339.69;4475563;31;34232;-80
2022/04/19 09:06:59;;;;;;;;;;;;;;;13.11;36.34;99327.56;4490704;31;34841;-80
2022/04/19 09:09:29;;;;;;;;;;;;;;;12.74;35.68;99335.28;4462533;31;32759;-81
2022/04/19 09:12:05;;;;;;;;;;;;;;;12.75;35.44;99334.28;4491762;31;33805;-78
2022/04/19 09:14:34;;;;;;;;;;;;;;;12.76;35.66;99339.44;4474813;31;34808;-80
2022/04/19 09:17:04;;;;;;;;;;;;;;;13.21;37.47;99330.87;4463292;31;35301;-79
2022/04/19 09:19:31;;;;;;;;;;;;;;;13.79;36.15;99329.41;4490714;31;33056;-79
2022/04/19 09:21:59;;;;;;;;;;;;;;;14.24;36.52;99324.16;4462321;31;34573;-79
2022/04/19 09:24:27;;;;;;;;;;;;;;;14.44;34.02;99319.97;4463297;31;34847;-79
2022/04/19 09:26:55;;;;;;;;;;;;;;;14.48;33.61;99318.62;4461812;31;34896;-79
2022/04/19 09:29:25;;;;;;;;;;;;;;;14.60;31.90;99320.69;4463562;31;31772;-79
2022/04/19 09:31:54;;;;;;;;;;;;;;;14.88;31.10;99320.91;4463351;31;34960;-79
2022/04/19 09:34:30;;;;;;;;;;;;;;;14.60;32.15;99323.34;4462690;31;35782;-79
2022/04/19 09:37:11;;;;;;;;;;;;;;;15.07;31.15;99321.22;4477189;31;35505;-80
2022/04/19 09:39:40;;;;;;;;;;;;;;;14.89;30.64;99317.22;4474955;31;33088;-79
2022/04/19 09:42:12;;;;;;;;;;;;;;;15.07;31.29;99313.19;4476895;31;33636;-79
2022/04/19 09:44:41;;;;;;;;;;;;;;;15.11;31.07;99316.31;4475386;31;35490;-79
2022/04/19 09:47:10;;;;;;;;;;;;;;;14.16;31.26;99318.00;4462581;31;34460;-80
2022/04/19 09:49:42;;;;;;;;;;;;;;;13.86;30.39;99318.88;4491162;31;32820;-80
2022/04/19 09:52:14;;;;;;;;;;;;;;;13.45;31.64;99320.94;4474008;31;32511;-80
2022/04/19 09:54:45;;;;;;;;;;;;;;;13.60;32.73;99310.34;4463360;31;34590;-79
2022/04/19 09:57:13;;;;;;;;;;;;;;;13.52;32.89;99316.56;4474734;31;34635;-79
2022/04/19 09:59:45;;;;;;;;;;;;;;;14.02;32.01;99316.94;4462688;31;32192;-79
2022/04/19 10:11:06;;;;;;;;;;;;;;;13.99;30.71;99311.09;4477295;31;33610;-82
2022/04/19 10:13:35;;;;;;;;;;;;;;;14.29;31.18;99312.91;4461052;31;33334;-81
2022/04/19 10:16:11;;;;;;;;;;;;;;;14.57;31.54;99306.81;4461068;31;33973;-80
2022/04/19 10:18:39;;;;;;;;;;;;;;;14.83;31.21;99300.03;4476083;31;35319;-81
2022/04/19 10:21:08;;;;;;;;;;;;;;;15.00;31.24;99298.84;4463465;31;32280;-80
2022/04/19 10:23:39;;;;;;;;;;;;;;;15.15;31.86;99302.38;4488795;31;34809;-81
2022/04/19 10:26:15;;;;;;;;;;;;;;;15.52;35.09;99304.12;4476040;31;34733;-81
2022/04/19 10:28:45;;;;;;;;;;;;;;;15.75;32.92;99302.97;4488853;31;35029;-81
2022/04/19 10:31:24;;;;;;;;;;;;;;;15.80;33.12;99299.72;4464003;31;31688;-81
2022/04/19 10:33:52;;;;;;;;;;;;;;;16.06;31.25;99302.69;4461985;31;33568;-82
2022/04/19 10:36:24;;;;;;;;;;;;;;;16.65;31.29;99287.97;4475816;31;35455;-81
2022/04/19 10:39:10;;;;;;;;;;;;;;;16.43;29.95;99295.22;4460453;31;33909;-81
2022/04/19 10:41:55;;;;;;;;;;;;;;;15.29;30.85;99296.16;4461001;31;31411;-79
2022/04/19 10:44:23;;;;;;;;;;;;;;;15.46;30.72;99283.41;4476063;31;33582;-80
2022/04/19 10:47:03;;;;;;;;;;;;;;;15.71;31.48;99290.13;4474206;31;34888;-81
2022/04/19 10:49:47;;;;;;;;;;;;;;;15.80;32.95;99288.97;4490075;31;34515;-82
2022/04/19 10:52:34;;;;;;;;;;;;;;;15.61;30.81;99289.59;4489033;31;32317;-82
2022/04/19 10:55:19;;;;;;;;;;;;;;;15.62;31.98;99292.09;4490297;31;33825;-81
2022/04/19 10:58:08;;;;;;;;;;;;;;;14.88;31.85;99292.28;4462068;31;36800;-82
2022/04/19 11:00:45;;;;;;;;;;;;;;;14.33;32.38;99295.50;4451036;31;33983;-81
2022/04/19 11:03:33;;;;;;;;;;;;;;;14.09;32.80;99301.00;4466947;31;32803;-82
2022/04/19 11:06:02;;;;;;;;;;;;;;;13.93;36.50;99307.28;4474037;31;33802;-81
2022/04/19 11:08:35;;;;;;;;;;;;;;;13.76;37.30;99313.75;4475801;31;36125;-81
2022/04/19 11:11:03;;;;;;;;;;;;;;;14.42;37.73;99303.25;4461223;31;34810;-81
2022/04/19 11:13:38;;;;;;;;;;;;;;;14.65;37.46;99304.06;4467189;31;32364;-81
2022/04/19 11:16:06;;;;;;;;;;;;;;;14.74;38.03;99306.47;4461202;31;33110;-81
2022/04/19 11:18:37;;;;;;;;;;;;;;;14.33;39.81;99303.53;4488355;31;35777;-81
2022/04/19 11:21:42;;;;;;;;;;;;;;;14.86;38.80;99307.69;4475326;31;35400;-81
2022/04/19 11:24:33;;;;;;;;;;;;;;;14.92;39.37;99304.28;4484842;31;33891;-82
2022/04/19 11:27:04;;;;;;;;;;;;;;;15.03;38.79;99311.88;4460100;31;32956;-81
2022/04/19 11:29:48;;;;;;;;;;;;;;;14.90;37.59;99310.84;4458846;31;34790;-81
2022/04/19 11:32:20;;;;;;;;;;;;;;;15.06;37.33;99314.19;4473284;31;33729;-80
2022/04/19 11:35:02;;;;;;;;;;;;;;;14.78;39.53;99328.38;4474898;31;33796;-81
2022/04/19 11:37:30;;;;;;;;;;;;;;;14.72;36.99;99335.28;4474547;31;32931;-82
2022/04/19 11:48:29;;;;;;;;;;;;;;;13.94;40.86;99351.75;4475199;31;33865;-80
2022/04/19 11:51:11;;;;;;;;;;;;;;;13.64;42.10;99360.59;4461897;31;34772;-80
2022/04/19 11:53:41;;;;;;;;;;;;;;;13.65;42.89;99351.56;4471813;31;34382;-80
2022/04/19 11:56:09;;;;;;;;;;;;;;;13.25;43.11;99350.88;4490356;31;33424;-80
2022/04/19 11:58:39;;;;;;;;;;;;;;;13.70;46.44;99345.69;4474365;31;33554;-80
2022/04/19 12:01:10;;;;;;;;;;;;;;;13.34;45.82;99350.69;4460932;31;34836;-80
2022/04/19 12:03:39;;;;;;;;;;;;;;;13.72;47.55;99354.38;4476005;31;33859;-80
2022/04/19 12:06:18;;;;;;;;;;;;;;;13.85;47.63;99355.47;4469921;31;31759;-81
2022/04/19 12:08:51;;;;;;;;;;;;;;;14.06;48.36;99354.84;4464433;31;35344;-81
2022/04/19 12:11:29;;;;;;;;;;;;;;;13.99;45.52;99351.22;4464975;31;34789;-80
2022/04/19 12:13:58;;;;;;;;;;;;;;;14.27;46.00;99352.41;4477377;31;34852;-80
2022/04/19 12:16:37;;;;;;;;;;;;;;;14.03;44.57;99357.84;4452532;31;32208;-78
2022/04/19 12:19:10;;;;;;;;;;;;;;;14.14;43.77;99358.28;4464696;31;33207;-80
2022/04/19 12:21:42;;;;;;;;;;;;;;;13.97;44.03;99361.25;4477814;31;34494;-80
2022/04/19 12:24:19;;;;;;;;;;;;;;;13.90;44.50;99353.13;4452614;31;34983;-81
2022/04/19 12:26:50;;;;;;;;;;;;;;;13.79;43.21;99358.00;4476553;31;32881;-82
2022/04/19 12:29:21;;;;;;;;;;;;;;;13.94;43.74;99357.09;4470011;31;34492;-81
2022/04/19 12:31:52;;;;;;;;;;;;;;;13.79;44.04;99356.16;4462543;31;34749;-81
2022/04/19 12:34:19;;;;;;;;;;;;;;;14.01;44.88;99351.84;4463512;31;34583;-81
2022/04/19 12:36:48;;;;;;;;;;;;;;;13.51;46.04;99356.81;4464825;31;33147;-81
2022/04/19 12:39:20;;;;;;;;;;;;;;;13.59;44.80;99360.25;4450282;31;33673;-82
2022/04/19 12:41:49;;;;;;;;;;;;;;;12.75;47.59;99359.13;4476266;31;34914;-81
2022/04/19 12:44:18;;;;;;;;;;;;;;;11.96;51.42;99363.44;4450386;31;34189;-81
2022/04/19 12:46:48;;;;;;;;;;;;;;;12.90;47.77;99352.09;4491405;31;33291;-81
2022/04/19 12:49:26;;;;;;;;;;;;;;;12.95;48.43;99352.44;4452032;31;33964;-81
2022/04/19 12:51:57;;;;;;;;;;;;;;;12.62;50.33;99353.47;4451896;31;34292;-81
2022/04/19 12:54:26;;;;;;;;;;;;;;;12.92;49.05;99354.63;4464652;31;33039;-81
2022/04/19 12:56:55;;;;;;;;;;;;;;;12.49;50.19;99352.31;4464828;31;32684;-81
2022/04/19 12:59:23;;;;;;;;;;;;;;;12.39;50.89;99352.47;4451534;31;33016;-81
2022/04/19 13:01:51;;;;;;;;;;;;;;;12.50;50.12;99354.81;4464972;31;35513;-81
2022/04/19 13:04:19;;;;;;;;;;;;;;;12.70;49.43;99342.81;4464896;31;35431;-81
2022/04/19 13:12:44;;;;;;;;;;;;;;;13.61;47.54;99346.75;4431835;32;34979;-81
2022/04/19 13:15:13;;;;;;;;;;;;;;;13.58;46.25;99350.59;4416416;32;33908;-81
2022/04/19 13:17:41;;;;;;;;;;;;;;;13.59;46.42;99352.25;4416403;32;33548;-81
2022/04/19 13:20:10;;;;;;;;;;;;;;;13.82;47.22;99350.47;4429985;32;33187;-81
2022/04/19 13:22:38;;;;;;;;;;;;;;;14.15;45.78;99346.59;4429468;32;34798;-81
2022/04/19 13:25:07;;;;;;;;;;;;;;;13.38;46.96;99351.16;4431887;32;34743;-81
2022/04/19 13:27:36;;;;;;;;;;;;;;;14.06;46.38;99347.66;4430023;32;33373;-81
2022/04/19 13:30:04;;;;;;;;;;;;;;;14.72;46.10;99346.00;4417190;32;33549;-81
2022/04/19 13:32:33;;;;;;;;;;;;;;;15.01;43.73;99351.41;4429050;32;35460;-81
2022/04/19 13:35:01;;;;;;;;;;;;;;;14.53;42.39;99348.34;4442549;32;34275;-81
2022/04/19 13:40:20;;;;;;;;;;;;;;;14.56;41.92;99346.13;4432486;32;33241;-81
2022/04/19 13:42:49;;;;;;;;;;;;;;;15.02;40.99;99344.22;4441968;32;33430;-81
2022/04/19 13:45:17;;;;;;;;;;;;;;;15.22;42.67;99346.16;4471105;32;34706;-81
2022/04/19 13:47:45;;;;;;;;;;;;;;;15.86;42.54;99348.06;4459324;32;33314;-81
2022/04/19 13:50:12;;;;;;;;;;;;;;;16.19;38.71;99349.28;4446705;32;33418;-81
2022/04/19 13:52:40;;;;;;;;;;;;;;;17.05;34.98;99331.06;4446325;32;34699;-82
2022/04/19 13:55:18;;;;;;;;;;;;;;;16.42;39.71;99333.84;4446230;32;34417;-81
2022/04/19 13:57:46;;;;;;;;;;;;;;;16.75;39.38;99334.97;4446509;32;32037;-82
2022/04/19 14:00:15;;;;;;;;;;;;;;;17.38;36.82;99328.59;4446517;32;34502;-82
2022/04/19 14:02:43;;;;;;;;;;;;;;;17.52;34.38;99329.31;4446381;32;34868;-82
2022/04/19 14:05:11;;;;;;;;;;;;;;;17.94;36.09;99321.00;4446130;32;34387;-82
2022/04/19 14:07:39;;;;;;;;;;;;;;;18.07;34.69;99320.22;4459150;32;32575;-83
2022/04/19 14:10:07;;;;;;;;;;;;;;;18.75;34.30;99325.28;4446292;32;33717;-82
2022/04/19 14:12:34;;;;;;;;;;;;;;;19.26;30.01;99312.84;4459198;32;35313;-82
2022/04/19 14:15:03;;;;;;;;;;;;;;;19.00;30.86;99312.84;4459109;32;33502;-83
2022/04/19 14:17:31;;;;;;;;;;;;;;;18.90;29.81;99312.44;4458939;32;34008;-81
2022/04/19 14:19:59;;;;;;;;;;;;;;;17.94;31.17;99312.09;4446313;32;32481;-83
2022/04/19 14:22:27;;;;;;;;;;;;;;;17.51;32.84;99314.19;4446193;32;34960;-82
2022/04/19 14:24:55;;;;;;;;;;;;;;;16.63;34.45;99324.94;4446303;32;33471;-81
2022/04/19 14:27:23;;;;;;;;;;;;;;;16.51;35.74;99318.44;4458125;32;33289;-82
2022/04/19 14:35:24;;;;;;;;;;;;;;;15.57;35.80;99333.91;4474658;32;33540;-81
2022/04/19 14:37:52;;;;;;;;;;;;;;;14.81;38.08;99325.31;4474654;32;32685;-81
2022/04/19 14:40:19;;;;;;;;;;;;;;;14.74;38.55;99322.53;4461873;32;33241;-82
2022/04/19 14:42:49;;;;;;;;;;;;;;;15.55;37.18;99323.34;4474715;32;35247;-82
2022/04/19 14:45:17;;;;;;;;;;;;;;;15.53;37.29;99328.06;4474590;32;34540;-81
2022/04/19 14:47:45;;;;;;;;;;;;;;;15.50;37.33;99322.25;4448589;32;32249;-82
2022/04/19 14:50:12;;;;;;;;;;;;;;;15.67;38.32;99318.34;4475751;32;33767;-81
2022/04/19 14:52:40;;;;;;;;;;;;;;;16.46;36.66;99320.88;4461226;32;35038;-82
2022/04/19 14:55:08;;;;;;;;;;;;;;;16.40;35.79;99327.00;4461471;32;33185;-82
2022/04/19 14:57:35;;;;;;;;;;;;;;;15.85;35.96;99319.59;4448397;32;32138;-81
2022/04/19 15:00:05;;;;;;;;;;;;;;;15.98;38.00;99317.03;4461347;32;33938;-81
2022/04/19 15:02:33;;;;;;;;;;;;;;;16.51;36.12;99321.13;4474559;32;34937;-81
2022/04/19 15:05:06;;;;;;;;;;;;;;;16.95;34.57;99319.84;4461572;32;35123;-81
2022/04/19 15:07:34;;;;;;;;;;;;;;;17.50;35.99;99317.09;4461313;32;31996;-81
2022/04/19 15:10:03;;;;;;;;;;;;;;;17.29;33.77;99321.69;4448638;32;33719;-81
2022/04/19 15:12:53;;;;;;;;;;;;;;;16.94;34.08;99325.38;4453160;32;34004;-80
2022/04/19 15:15:20;;;;;;;;;;;;;;;16.41;35.31;99331.37;4461514;32;34136;-81
2022/04/19 15:17:49;;;;;;;;;;;;;;;15.82;35.92;99336.06;4461529;32;33039;-81
2022/04/19 15:20:17;;;;;;;;;;;;;;;15.35;37.43;99332.97;4448703;32;33272;-81
2022/04/19 15:22:44;;;;;;;;;;;;;;;15.42;37.47;99336.56;4461405;32;35075;-80
2022/04/19 15:25:13;;;;;;;;;;;;;;;15.66;36.72;99343.47;4448360;32;34087;-81
2022/04/19 15:27:42;;;;;;;;;;;;;;;15.15;37.55;99334.53;4473965;32;32192;-82
2022/04/19 15:30:09;;;;;;;;;;;;;;;15.15;37.84;99341.72;4473967;32;34531;-82
2022/04/19 15:32:38;;;;;;;;;;;;;;;14.87;38.46;99344.19;4469976;31;36039;-81
2022/04/19 15:35:07;;;;;;;;;;;;;;;14.83;38.16;99337.53;4461597;31;33628;-80
2022/04/19 15:37:35;;;;;;;;;;;;;;;15.06;37.94;99343.66;4461086;31;33077;-81
2022/04/19 15:40:03;;;;;;;;;;;;;;;15.64;38.40;99348.19;4474777;31;33707;-80
2022/04/19 15:42:35;;;;;;;;;;;;;;;14.71;38.38;99346.16;4447750;31;34163;-80
2022/04/19 15:45:07;;;;;;;;;;;;;;;13.77;39.70;99344.81;4474526;31;34274;-81
2022/04/19 15:47:39;;;;;;;;;;;;;;;13.98;39.33;99352.22;4475605;31;33218;-82
2022/04/19 15:50:07;;;;;;;;;;;;;;;13.12;41.80;99353.28;4450071;31;32442;-82
2022/04/19 15:52:36;;;;;;;;;;;;;;;13.10;41.97;99350.75;4438757;31;33330;-82
2022/04/19 15:55:04;;;;;;;;;;;;;;;12.83;43.06;99355.63;4463244;31;33695;-82
2022/04/19 15:57:32;;;;;;;;;;;;;;;12.79;43.52;99356.97;4475048;31;33370;-83
2022/04/19 16:00:01;;;;;;;;;;;;;;;12.21;45.40;99358.97;4475500;31;33162;-82
2022/04/19 16:02:31;;;;;;;;;;;;;;;12.12;45.47;99362.63;4476386;31;34976;-81
2022/04/19 16:05:01;;;;;;;;;;;;;;;12.20;45.57;99367.97;4463700;31;34778;-82
2022/04/19 16:07:29;;;;;;;;;;;;;;;11.88;46.81;99370.56;4476147;31;33683;-79
2022/04/19 16:09:56;;;;;;;;;;;;;;;11.50;48.23;99376.37;4463196;31;34824;-79
2022/04/19 16:12:24;;;;;;;;;;;;;;;11.69;48.17;99377.00;4463071;31;33454;-79
2022/04/19 16:14:52;;;;;;;;;;;;;;;11.78;47.47;99386.69;4450593;31;32966;-79
2022/04/19 16:25:41;;;;;;;;;;;;;;;11.07;50.44;99381.00;4451160;31;33413;-81
2022/04/19 16:28:09;;;;;;;;;;;;;;;11.00;49.97;99386.13;4460682;31;31746;-80
2022/04/19 16:30:37;;;;;;;;;;;;;;;10.92;50.38;99382.53;4488439;31;33514;-81
2022/04/19 16:33:05;;;;;;;;;;;;;;;11.26;49.44;99386.09;4461273;31;34834;-81
2022/04/19 16:35:35;;;;;;;;;;;;;;;11.20;48.88;99379.56;4445358;31;36245;-82
2022/04/19 16:38:04;;;;;;;;;;;;;;;11.25;47.80;99379.09;4473676;31;33237;-79
2022/04/19 16:40:32;;;;;;;;;;;;;;;11.01;48.22;99377.13;4472531;31;33836;-81
2022/04/19 16:43:03;;;;;;;;;;;;;;;10.69;47.96;99378.72;4462985;31;34937;-80
2022/04/19 16:45:30;;;;;;;;;;;;;;;10.23;49.37;99384.31;4485745;31;34179;-81
2022/04/19 16:48:05;;;;;;;;;;;;;;;10.46;48.28;99394.34;4489209;31;32961;-80
2022/04/19 16:50:33;;;;;;;;;;;;;;;10.27;49.35;99391.84;3729621;26;34655;-76
2022/04/19 16:53:02;;;;;;;;;;;;;;;10.53;48.79;99384.75;4375444;32;32942;-77
2022/04/19 16:55:30;;;;;;;;;;;;;;;10.46;49.33;99391.69;4384773;32;34521;-77
2022/04/19 16:58:01;;;;;;;;;;;;;;;10.58;49.32;99379.81;4364029;32;32579;-77
2022/04/19 17:00:30;;;;;;;;;;;;;;;10.73;48.85;99385.41;4365993;32;32616;-77
2022/04/19 17:05:48;;;;;;;;;;;;;;;10.67;49.38;99375.41;4380193;32;34290;-77
2022/04/19 17:08:15;;;;;;;;;;;;;;;10.71;49.24;99380.25;4380226;32;32557;-78
2022/04/19 17:10:43;;;;;;;;;;;;;;;10.51;50.17;99384.09;4384468;32;33256;-78
2022/04/19 17:13:11;;;;;;;;;;;;;;;10.61;49.88;99376.00;4373241;32;35674;-77
2022/04/19 17:15:40;;;;;;;;;;;;;;;10.71;49.94;99382.91;4409471;32;33924;-78
2022/04/19 17:18:08;;;;;;;;;;;;;;;10.87;49.65;99383.00;4352876;32;31475;-77
2022/04/19 17:20:36;;;;;;;;;;;;;;;10.35;50.96;99386.59;4372914;32;32670;-78
2022/04/19 17:23:04;;;;;;;;;;;;;;;10.81;49.49;99383.66;4378382;32;33557;-77
2022/04/19 17:25:33;;;;;;;;;;;;;;;10.77;49.83;99390.25;4373609;32;34279;-77
2022/04/19 17:28:02;;;;;;;;;;;;;;;10.91;49.61;99399.50;4361947;32;33935;-78
2022/04/19 17:30:31;;;;;;;;;;;;;;;10.82;50.18;99400.44;4363574;32;32827;-78
2022/04/19 17:32:59;;;;;;;;;;;;;;;10.98;50.08;99400.56;4386470;32;34853;-78
2022/04/19 17:35:27;;;;;;;;;;;;;;;11.28;49.39;99404.41;4380269;32;34314;-78
2022/04/19 17:37:55;;;;;;;;;;;;;;;11.37;49.29;99413.28;4339430;32;32286;-78
2022/04/19 17:40:22;;;;;;;;;;;;;;;11.52;48.97;99411.69;4375231;32;33414;-75
2022/04/19 17:42:50;;;;;;;;;;;;;;;11.28;49.57;99408.91;4363685;32;34710;-74
2022/04/19 17:45:22;;;;;;;;;;;;;;;11.32;49.38;99411.09;4383259;32;35003;-75
2022/04/19 17:47:50;;;;;;;;;;;;;;;11.47;49.38;99411.34;4370285;32;32525;-78
2022/04/19 17:59:15;;;;;;;;;;;;;;;11.26;49.77;99429.53;4383638;32;33144;-77
2022/04/19 18:01:43;;;;;;;;;;;;;;;11.08;50.17;99446.53;4380155;32;33007;-76
2022/04/19 18:04:11;;;;;;;;;;;;;;;11.10;49.92;99442.75;4370351;32;34337;-77
2022/04/19 18:06:45;;;;;;;;;;;;;;;11.27;49.32;99442.69;4390665;32;34848;-76
2022/04/19 18:09:14;;;;;;;;;;;;;;;11.28;49.29;99447.00;4374408;32;33419;-77
2022/04/19 18:11:41;;;;;;;;;;;;;;;11.19;49.85;99446.28;4379696;32;34042;-77
2022/04/19 18:14:12;;;;;;;;;;;;;;;10.97;50.57;99452.97;4353309;32;35915;-78
2022/04/19 18:16:40;;;;;;;;;;;;;;;11.08;50.11;99447.41;4391050;32;32469;-78
2022/04/19 18:19:09;;;;;;;;;;;;;;;10.79;50.79;99456.62;4390694;32;33397;-77
2022/04/19 18:27:12;;;;;;;;;;;;;;;10.75;50.93;99457.94;4386759;32;35068;-77
2022/04/19 18:29:42;;;;;;;;;;;;;;;10.75;51.02;99453.44;4402584;32;34392;-78
2022/04/19 18:32:10;;;;;;;;;;;;;;;10.66;51.16;99461.53;4384332;32;34108;-77
2022/04/19 18:34:38;;;;;;;;;;;;;;;10.76;51.11;99467.59;4353813;32;34101;-78
2022/04/19 18:37:06;;;;;;;;;;;;;;;10.70;51.34;99478.84;4374685;32;34332;-76
2022/04/19 18:39:35;;;;;;;;;;;;;;;10.75;51.19;99488.03;4362690;32;32705;-77
2022/04/19 18:42:03;;;;;;;;;;;;;;;10.86;50.89;99484.31;4361618;32;33532;-77
2022/04/19 18:44:31;;;;;;;;;;;;;;;10.84;50.73;99492.44;4370975;32;35165;-76
2022/04/19 18:46:59;;;;;;;;;;;;;;;10.84;50.58;99499.59;4355801;32;35713;-77
2022/04/19 18:49:29;;;;;;;;;;;;;;;10.77;50.67;99503.84;4372846;32;32724;-76
2022/04/19 18:51:58;;;;;;;;;;;;;;;10.73;50.68;99505.13;4377471;32;33627;-76
2022/04/19 18:54:28;;;;;;;;;;;;;;;10.69;50.83;99501.97;4361042;32;35233;-76
2022/04/19 18:56:57;;;;;;;;;;;;;;;10.72;50.52;99504.31;4363175;32;34761;-76
2022/04/19 18:59:25;;;;;;;;;;;;;;;10.63;50.77;99502.56;4421466;32;32594;-76
2022/04/19 19:01:53;;;;;;;;;;;;;;;10.59;51.08;99505.66;4390017;32;33385;-76
2022/04/19 19:04:21;;;;;;;;;;;;;;;10.68;51.01;99507.41;4369142;32;34769;-76
2022/04/19 19:06:49;;;;;;;;;;;;;;;10.70;50.63;99508.09;4367406;32;33988;-76
2022/04/19 19:09:18;;;;;;;;;;;;;;;10.73;50.62;99513.09;4346021;32;33512;-76
2022/04/19 19:11:47;;;;;;;;;;;;;;;10.30;51.99;99513.81;4389700;32;33670;-76
2022/04/19 19:14:15;;;;;;;;;;;;;;;10.08;52.78;99516.91;4413591;32;33852;-77
2022/04/19 19:16:45;;;;;;;;;;;;;;;10.06;53.02;99520.69;4408564;32;34223;-76
2022/04/19 19:19:13;;;;;;;;;;;;;;;10.04;53.29;99522.66;4365739;32;32946;-76
2022/04/19 19:21:41;;;;;;;;;;;;;;;10.14;52.99;99518.97;4421074;32;34075;-76
2022/04/19 19:24:12;;;;;;;;;;;;;;;10.06;53.01;99528.66;4371626;32;33571;-76
2022/04/19 19:26:40;;;;;;;;;;;;;;;10.13;52.52;99527.09;4394731;32;34549;-76
2022/04/19 19:29:08;;;;;;;;;;;;;;;10.10;52.54;99530.88;4376541;32;33362;-78
2022/04/19 19:31:36;;;;;;;;;;;;;;;10.14;52.29;99528.75;4413117;32;33893;-77
2022/04/19 19:34:05;;;;;;;;;;;;;;;10.17;52.07;99536.44;4376258;32;35364;-78
2022/04/19 19:36:32;;;;;;;;;;;;;;;10.07;52.28;99538.31;4361000;32;34720;-78
2022/04/19 19:39:01;;;;;;;;;;;;;;;10.03;52.13;99540.41;4375982;32;33204;-78
2022/04/19 19:41:32;;;;;;;;;;;;;;;10.00;52.22;99546.00;4369408;32;34089;-77
2022/04/19 19:44:00;;;;;;;;;;;;;;;9.88;52.47;99551.63;4423545;32;35470;-76
2022/04/19 19:46:28;;;;;;;;;;;;;;;9.89;52.53;99556.81;4387469;32;34450;-77
2022/04/19 19:48:56;;;;;;;;;;;;;;;9.83;52.80;99565.34;4425222;32;33386;-77
2022/04/19 19:51:24;;;;;;;;;;;;;;;9.91;52.32;99572.63;4374394;32;33469;-77
2022/04/19 19:53:52;;;;;;;;;;;;;;;9.81;52.43;99574.47;4359856;32;35260;-77
2022/04/19 19:56:20;;;;;;;;;;;;;;;9.69;52.70;99586.25;4426380;32;34396;-80
2022/04/19 19:58:48;;;;;;;;;;;;;;;9.69;52.50;99584.44;4375647;32;32508;-76
2022/04/19 20:01:16;;;;;;;;;;;;;;;9.60;52.80;99587.09;4423287;32;33876;-77
2022/04/19 20:03:43;;;;;;;;;;;;;;;9.57;52.54;99585.59;4370808;32;36049;-76